Diamond Orchid — 9VNH4 — position and weather

sailwx.info

Track history (hours):
 
Tides and Currents Weather Stations Pressure Air Temp Water Temp Dewpoint Dewpoint Depression Visibility Wind Speed Wind Dir Waves Ship Positions

Diamond Orchid

Last reported at 2014-Sep-14 08:12 UTC. Time now 2014-Sep-16 15:26 UTC.
Position N 01°15' E 104°05'.

Length 144 m; draft 9.7 m.

Type: Tanker. MMSI: 565789000.

Date/timePositionNaut miles runAvg speedWind from/ knotsBaromVisibWave heightAir tempDewpointWater temp
2014-Sep-14 08:12N 01°15' E 104°05'914.0
2014-Sep-14 07:33N 01°13' E 103°56'1313.0
2014-Sep-14 06:33N 01°06' E 103°45'1110.8
2014-Sep-14 05:29N 01°06' E 103°33'1313.2
2014-Sep-14 04:32N 01°13' E 103°23'  
2014-Sep-09 05:32N 01°12' E 103°50'1313.0
2014-Sep-09 04:33N 01°16' E 104°02'1 0.0
2014-Sep-07 12:33N 01°15' E 104°02'1312.8
2014-Sep-07 11:33N 01°11' E 103°50'11 4.6
2014-Sep-07 09:12N 01°12' E 103°39'10 1.2
2014-Sep-07 00:33N 01°12' E 103°50'1515.2
2014-Sep-06 23:32N 01°17' E 104°04'9 8.6
2014-Sep-06 22:28N 01°24' E 103°58'1 0.0
2014-Sep-05 20:20N 01°24' E 103°58'7 9.2
2014-Sep-05 19:33N 01°21' E 104°04'2 0.9
2014-Sep-05 17:30N 01°20' E 104°06'0 0.0
2014-Sep-05 14:27N 01°20' E 104°06'0 0.0
2014-Sep-05 02:12N 01°20' E 104°06'0 0.0
2014-Sep-05 00:27N 01°20' E 104°06'0 0.0
2014-Sep-04 21:18N 01°20' E 104°06'1 0.7
2014-Sep-04 20:34N 01°20' E 104°06'  
Track history (hours):
 
Tides and Currents Weather Stations Pressure Air Temp Water Temp Dewpoint Dewpoint Depression Visibility Wind Speed Wind Dir Waves Ship Positions

Diamond Orchid

Last reported at 2014-Sep-14 08:12 UTC. Time now 2014-Sep-16 15:26 UTC.
Position N 01°15' E 104°05'.

Length 144 m; draft 9.7 m.

Type: Tanker. MMSI: 565789000.

Date/timePositionNaut miles runAvg speedWind from/ knotsBaromVisibWave heightAir tempDewpointWater temp
2014-Sep-14 08:12N 01°15' E 104°05'914.0
2014-Sep-14 07:33N 01°13' E 103°56'1313.0
2014-Sep-14 06:33N 01°06' E 103°45'1110.8
2014-Sep-14 05:29N 01°06' E 103°33'1313.2
2014-Sep-14 04:32N 01°13' E 103°23'  
2014-Sep-09 05:32N 01°12' E 103°50'1313.0
2014-Sep-09 04:33N 01°16' E 104°02'1 0.0
2014-Sep-07 12:33N 01°15' E 104°02'1312.8
2014-Sep-07 11:33N 01°11' E 103°50'11 4.6
2014-Sep-07 09:12N 01°12' E 103°39'10 1.2
2014-Sep-07 00:33N 01°12' E 103°50'1515.2
2014-Sep-06 23:32N 01°17' E 104°04'9 8.6
2014-Sep-06 22:28N 01°24' E 103°58'1 0.0
2014-Sep-05 20:20N 01°24' E 103°58'7 9.2
2014-Sep-05 19:33N 01°21' E 104°04'2 0.9
2014-Sep-05 17:30N 01°20' E 104°06'0 0.0
2014-Sep-05 14:27N 01°20' E 104°06'0 0.0
2014-Sep-05 02:12N 01°20' E 104°06'0 0.0
2014-Sep-05 00:27N 01°20' E 104°06'0 0.0
2014-Sep-04 21:18N 01°20' E 104°06'1 0.7
2014-Sep-04 20:34N 01°20' E 104°06'  

Dump ship's entire track history